createdAt,value
2023-02-15T00:00:04.787Z,3.28
2023-02-15T00:02:31.247Z,3.10
2023-02-15T00:04:57.755Z,3.22
2023-02-15T00:07:24.249Z,3.30
2023-02-15T00:09:50.757Z,3.50
2023-02-15T00:12:17.241Z,4.10
2023-02-15T00:14:43.845Z,3.72
2023-02-15T00:17:10.328Z,3.03
2023-02-15T00:19:36.815Z,2.90
2023-02-15T00:22:03.311Z,3.15
2023-02-15T00:24:29.785Z,3.50
2023-02-15T00:26:56.305Z,3.20
2023-02-15T00:29:22.803Z,3.28
2023-02-15T00:31:49.341Z,3.05
2023-02-15T00:34:15.897Z,3.50
2023-02-15T00:36:42.388Z,3.05
2023-02-15T00:39:08.867Z,3.00
2023-02-15T00:41:35.346Z,3.40
2023-02-15T00:44:01.870Z,3.28
2023-02-15T00:46:28.390Z,3.13
2023-02-15T00:48:54.900Z,3.05
2023-02-15T00:51:21.385Z,2.75
2023-02-15T00:53:47.888Z,3.33
2023-02-15T00:56:14.358Z,3.03
2023-02-15T00:58:40.875Z,2.95
2023-02-15T01:01:07.386Z,2.97
2023-02-15T01:03:33.924Z,2.72
2023-02-15T01:06:00.704Z,2.97
2023-02-15T01:08:27.323Z,3.47
2023-02-15T01:10:53.784Z,3.30
2023-02-15T01:13:20.264Z,3.13
2023-02-15T01:15:46.864Z,2.95
2023-02-15T01:18:13.362Z,2.85
2023-02-15T01:20:39.825Z,3.20
2023-02-15T01:23:06.284Z,2.85
2023-02-15T01:25:32.767Z,3.10
2023-02-15T01:27:59.248Z,3.35
2023-02-15T01:30:25.746Z,2.65
2023-02-15T01:32:52.264Z,2.95
2023-02-15T01:35:18.780Z,3.13
2023-02-15T01:37:45.302Z,2.83
2023-02-15T01:40:11.756Z,3.00
2023-02-15T01:42:38.281Z,2.72
2023-02-15T01:45:04.753Z,3.00
2023-02-15T01:47:31.232Z,2.92
2023-02-15T01:49:57.720Z,3.10
2023-02-15T01:52:24.228Z,3.25
2023-02-15T01:54:50.700Z,2.83
2023-02-15T01:57:17.186Z,2.85
2023-02-15T01:59:43.826Z,3.10
2023-02-15T02:02:10.303Z,3.28
2023-02-15T02:04:36.794Z,2.97
2023-02-15T02:07:03.312Z,2.50
2023-02-15T02:09:29.835Z,2.90
2023-02-15T02:11:56.340Z,2.88
2023-02-15T02:14:22.810Z,3.40
2023-02-15T02:16:49.358Z,2.85
2023-02-15T02:19:15.866Z,2.83
2023-02-15T02:21:42.372Z,3.05
2023-02-15T02:24:08.881Z,2.85
2023-02-15T02:26:35.354Z,2.80
2023-02-15T02:29:01.890Z,2.78
2023-02-15T02:31:28.500Z,3.15
2023-02-15T02:33:55.055Z,2.92
2023-02-15T02:36:21.556Z,2.72
2023-02-15T02:38:48.058Z,2.47
2023-02-15T02:41:14.573Z,2.83
2023-02-15T02:43:41.049Z,2.55
2023-02-15T02:46:07.565Z,3.08
2023-02-15T02:48:34.136Z,2.90
2023-02-15T02:51:00.603Z,3.28
2023-02-15T02:53:27.133Z,2.95
2023-02-15T02:55:53.615Z,3.10
2023-02-15T02:58:20.090Z,3.20
2023-02-15T03:00:46.542Z,2.90
2023-02-15T03:03:12.997Z,2.97
2023-02-15T03:05:39.498Z,3.22
2023-02-15T03:08:05.951Z,2.90
2023-02-15T03:10:32.453Z,3.20
2023-02-15T03:12:58.909Z,3.00
2023-02-15T03:15:25.359Z,2.80
2023-02-15T03:17:51.851Z,2.63
2023-02-15T03:20:18.382Z,2.50
2023-02-15T03:22:44.902Z,3.30
2023-02-15T03:25:11.403Z,2.88
2023-02-15T03:27:37.877Z,3.08
2023-02-15T03:30:04.328Z,3.10
2023-02-15T03:32:30.842Z,2.78
2023-02-15T03:34:57.338Z,3.30
2023-02-15T03:37:23.809Z,2.45
2023-02-15T03:39:50.467Z,3.05
2023-02-15T03:42:16.992Z,2.80
2023-02-15T03:44:43.460Z,3.50
2023-02-15T03:47:09.952Z,3.22
2023-02-15T03:49:36.685Z,3.13
2023-02-15T03:52:03.148Z,2.90
2023-02-15T03:54:29.633Z,2.83
2023-02-15T03:56:56.103Z,3.22
2023-02-15T03:59:22.546Z,3.60
2023-02-15T04:01:48.999Z,2.95
2023-02-15T04:04:15.486Z,3.10
2023-02-15T04:06:41.963Z,3.30
2023-02-15T04:09:08.441Z,2.88
2023-02-15T04:11:34.938Z,2.85
2023-02-15T04:14:01.397Z,2.95
2023-02-15T04:16:29.687Z,2.92
2023-02-15T04:18:57.602Z,2.97
2023-02-15T04:21:24.095Z,2.88
2023-02-15T04:23:50.604Z,3.15
2023-02-15T04:26:17.102Z,2.67
2023-02-15T04:28:43.580Z,2.95
2023-02-15T04:31:10.122Z,2.70
2023-02-15T04:33:36.636Z,2.85
2023-02-15T04:36:03.280Z,3.08
2023-02-15T04:38:29.901Z,2.97
2023-02-15T04:40:56.370Z,3.15
2023-02-15T04:43:22.879Z,3.00
2023-02-15T04:45:49.473Z,3.03
2023-02-15T04:48:16.066Z,2.88
2023-02-15T04:50:42.550Z,3.03
2023-02-15T04:53:09.038Z,3.17
2023-02-15T04:55:35.539Z,3.08
2023-02-15T04:58:02.078Z,3.40
2023-02-15T05:00:28.584Z,3.30
2023-02-15T05:02:55.088Z,3.60
2023-02-15T05:05:21.822Z,3.50
2023-02-15T05:07:48.301Z,3.33
2023-02-15T05:10:14.798Z,3.10
2023-02-15T05:12:41.322Z,3.80
2023-02-15T05:15:07.853Z,3.92
2023-02-15T05:17:34.362Z,3.65
2023-02-15T05:20:00.852Z,3.17
2023-02-15T05:22:27.356Z,3.70
2023-02-15T05:24:53.827Z,3.30
2023-02-15T05:27:20.319Z,3.50
2023-02-15T05:29:46.941Z,3.10
2023-02-15T05:32:13.569Z,3.53
2023-02-15T05:34:40.152Z,3.78
2023-02-15T05:37:06.650Z,3.30
2023-02-15T05:39:33.171Z,3.55
2023-02-15T05:41:59.649Z,3.42
2023-02-15T05:44:26.140Z,3.40
2023-02-15T05:46:52.609Z,3.67
2023-02-15T05:49:19.105Z,5.35
2023-02-15T05:51:45.604Z,4.15
2023-02-15T05:54:12.081Z,3.78
2023-02-15T05:56:38.578Z,4.50
2023-02-15T05:59:05.082Z,3.53
2023-02-15T06:01:31.591Z,3.80
2023-02-15T06:03:58.077Z,3.50
2023-02-15T06:06:24.549Z,3.90
2023-02-15T06:08:51.069Z,3.90
2023-02-15T06:11:17.603Z,3.72
2023-02-15T06:13:44.160Z,3.35
2023-02-15T06:16:10.701Z,4.03
2023-02-15T06:18:37.205Z,3.45
2023-02-15T06:21:03.666Z,3.45
2023-02-15T06:23:30.128Z,3.78
2023-02-15T06:25:56.605Z,3.72
2023-02-15T06:28:23.091Z,3.38
2023-02-15T06:30:49.628Z,3.63
2023-02-15T06:33:16.226Z,3.55
2023-02-15T06:35:42.721Z,3.70
2023-02-15T06:38:09.194Z,3.58
2023-02-15T06:40:35.665Z,4.00
2023-02-15T06:43:02.131Z,4.13
2023-02-15T06:45:28.627Z,4.03
2023-02-15T06:47:55.134Z,3.67
2023-02-15T06:50:21.680Z,3.55
2023-02-15T06:52:48.154Z,4.13
2023-02-15T06:55:14.616Z,4.18
2023-02-15T06:57:41.093Z,3.88
2023-02-15T07:00:07.578Z,3.55
2023-02-15T07:02:34.088Z,3.25
2023-02-15T07:05:00.673Z,3.95
2023-02-15T07:07:27.233Z,4.40
2023-02-15T07:09:53.686Z,3.65
2023-02-15T07:12:20.136Z,4.10
2023-02-15T07:14:46.645Z,4.10
2023-02-15T07:17:32.940Z,4.18
2023-02-15T07:19:59.579Z,3.83
2023-02-15T07:22:26.050Z,4.38
2023-02-15T07:24:52.551Z,4.20
2023-02-15T07:27:19.059Z,4.38
2023-02-15T07:29:45.555Z,3.95
2023-02-15T07:32:12.104Z,3.70
2023-02-15T07:34:38.666Z,4.20
2023-02-15T07:37:05.116Z,4.05
2023-02-15T07:39:31.622Z,4.65
2023-02-15T07:41:58.147Z,4.00
2023-02-15T07:44:24.596Z,4.10
2023-02-15T07:46:51.077Z,4.15
2023-02-15T07:49:17.644Z,4.75
2023-02-15T07:51:44.158Z,4.03
2023-02-15T07:54:10.656Z,4.20
2023-02-15T07:56:37.250Z,4.35
2023-02-15T07:59:03.756Z,4.30
2023-02-15T08:01:30.201Z,4.43
2023-02-15T08:03:56.763Z,4.25
2023-02-15T08:06:23.241Z,4.75
2023-02-15T08:08:49.727Z,4.07
2023-02-15T08:11:16.184Z,4.90
2023-02-15T08:13:42.711Z,4.65
2023-02-15T08:16:09.206Z,4.57
2023-02-15T08:18:35.728Z,5.20
2023-02-15T08:21:02.274Z,4.70
2023-02-15T08:23:28.796Z,4.95
2023-02-15T08:25:55.324Z,4.95
2023-02-15T08:28:21.820Z,4.88
2023-02-15T08:30:48.346Z,4.97
2023-02-15T08:33:14.869Z,5.05
2023-02-15T08:35:41.321Z,5.80
2023-02-15T08:38:07.804Z,5.80
2023-02-15T08:40:34.280Z,5.25
2023-02-15T08:43:00.759Z,5.38
2023-02-15T08:45:27.351Z,5.43
2023-02-15T08:47:53.817Z,5.50
2023-02-15T08:50:20.282Z,5.90
2023-02-15T08:52:46.736Z,5.47
2023-02-15T08:55:13.250Z,5.70
2023-02-15T08:57:39.719Z,5.68
2023-02-15T09:00:06.193Z,5.72
2023-02-15T09:02:32.710Z,5.97
2023-02-15T09:04:59.277Z,5.68
2023-02-15T09:07:25.786Z,6.07
2023-02-15T09:09:52.250Z,5.88
2023-02-15T09:12:18.746Z,6.82
2023-02-15T09:14:45.251Z,6.30
2023-02-15T09:17:13.158Z,6.32
2023-02-15T09:19:40.697Z,6.57
2023-02-15T09:22:07.163Z,6.63
2023-02-15T09:24:33.664Z,6.00
2023-02-15T09:27:00.121Z,6.22
2023-02-15T09:29:26.599Z,6.85
2023-02-15T09:31:53.095Z,6.82
2023-02-15T09:34:19.619Z,6.43
2023-02-15T09:36:46.231Z,6.43
2023-02-15T09:39:12.678Z,6.47
2023-02-15T09:41:39.154Z,6.97
2023-02-15T09:44:05.670Z,6.10
2023-02-15T09:46:32.164Z,6.70
2023-02-15T09:48:58.659Z,6.50
2023-02-15T09:51:25.164Z,6.72
2023-02-15T09:53:51.674Z,6.57
2023-02-15T09:56:20.149Z,6.03
2023-02-15T09:58:47.444Z,6.07
2023-02-15T10:01:13.983Z,7.00
2023-02-15T10:03:40.487Z,6.82
2023-02-15T10:06:06.968Z,5.82
2023-02-15T10:08:33.464Z,6.60
2023-02-15T10:11:00.167Z,6.38
2023-02-15T10:13:26.819Z,6.00
2023-02-15T10:15:53.324Z,5.57
2023-02-15T10:18:19.850Z,5.97
2023-02-15T10:20:46.317Z,6.25
2023-02-15T10:23:12.806Z,6.82
2023-02-15T10:25:39.298Z,5.65
2023-02-15T10:28:05.803Z,5.38
2023-02-15T10:30:32.719Z,5.82
2023-02-15T10:32:59.290Z,5.20
2023-02-15T10:35:25.763Z,6.50
2023-02-15T10:37:52.264Z,5.88
2023-02-15T10:40:18.782Z,5.00
2023-02-15T10:42:45.297Z,6.10
2023-02-15T10:45:11.780Z,5.50
2023-02-15T10:47:38.249Z,5.45
2023-02-15T10:50:04.890Z,5.90
2023-02-15T10:52:31.420Z,5.78
2023-02-15T10:54:57.876Z,5.10
2023-02-15T10:57:24.412Z,5.72
2023-02-15T10:59:50.937Z,5.07
2023-02-15T11:02:17.417Z,5.13
2023-02-15T11:04:43.918Z,5.25
2023-02-15T11:07:10.440Z,5.28
2023-02-15T11:09:36.907Z,4.68
2023-02-15T11:12:03.358Z,4.90
2023-02-15T11:14:29.803Z,4.28
2023-02-15T11:16:56.250Z,4.55
2023-02-15T11:19:22.702Z,4.88
2023-02-15T11:21:49.186Z,4.32
2023-02-15T11:24:15.675Z,4.20
2023-02-15T11:26:42.163Z,4.97
2023-02-15T11:29:08.648Z,4.25
2023-02-15T11:31:35.179Z,4.28
2023-02-15T11:34:01.701Z,3.83
2023-02-15T11:36:28.189Z,4.03
2023-02-15T11:38:54.678Z,4.00
2023-02-15T11:41:21.207Z,4.70
2023-02-15T11:43:47.760Z,3.50
2023-02-15T11:46:14.397Z,4.20
2023-02-15T11:48:40.897Z,4.32
2023-02-15T11:51:07.398Z,3.45
2023-02-15T11:53:33.838Z,3.97
2023-02-15T11:56:00.331Z,4.28
2023-02-15T11:58:26.936Z,4.00
2023-02-15T12:00:53.399Z,3.70
2023-02-15T12:03:21.425Z,4.32
2023-02-15T12:05:48.981Z,3.80
2023-02-15T12:08:15.446Z,3.22
2023-02-15T12:10:41.943Z,3.60
2023-02-15T12:13:08.472Z,3.65
2023-02-15T12:15:34.972Z,3.67
2023-02-15T12:18:01.479Z,3.90
2023-02-15T12:20:27.952Z,3.38
2023-02-15T12:22:54.450Z,3.33
2023-02-15T12:25:20.898Z,3.80
2023-02-15T12:27:47.425Z,4.20
2023-02-15T12:30:13.951Z,3.90
2023-02-15T12:32:40.469Z,3.30
2023-02-15T12:35:06.918Z,3.83
2023-02-15T12:37:33.420Z,3.17
2023-02-15T12:39:59.966Z,3.65
2023-02-15T12:42:26.463Z,3.38
2023-02-15T12:44:52.951Z,3.70
2023-02-15T12:47:19.498Z,3.03
2023-02-15T12:49:48.826Z,3.28
2023-02-15T12:52:15.300Z,3.50
2023-02-15T12:54:41.826Z,3.28
2023-02-15T12:57:08.399Z,3.53
2023-02-15T12:59:34.878Z,3.35
2023-02-15T13:02:01.379Z,3.78
2023-02-15T13:04:27.921Z,3.45
2023-02-15T13:06:54.459Z,3.42
2023-02-15T13:09:20.986Z,3.42
2023-02-15T13:11:47.507Z,3.28
2023-02-15T13:14:13.980Z,3.08
2023-02-15T13:16:40.607Z,3.33
2023-02-15T13:19:07.160Z,2.97
2023-02-15T13:21:33.639Z,3.03
2023-02-15T13:24:00.166Z,3.40
2023-02-15T13:26:26.682Z,3.08
2023-02-15T13:28:53.156Z,3.30
2023-02-15T13:31:19.765Z,3.50
2023-02-15T13:33:46.385Z,3.03
2023-02-15T13:36:12.869Z,4.18
2023-02-15T13:38:40.563Z,2.63
2023-02-15T13:41:07.045Z,2.92
2023-02-15T13:43:33.580Z,2.85
2023-02-15T13:46:00.389Z,3.20
2023-02-15T13:48:36.945Z,3.03
2023-02-15T13:51:11.427Z,3.00
2023-02-15T13:53:37.981Z,3.20
2023-02-15T13:56:04.605Z,2.80
2023-02-15T13:58:31.206Z,2.78
2023-02-15T14:00:57.723Z,3.03
2023-02-15T14:03:24.257Z,3.20
2023-02-15T14:05:50.741Z,2.92
2023-02-15T14:08:17.246Z,3.28
2023-02-15T14:10:43.740Z,2.65
2023-02-15T14:13:10.225Z,2.70
2023-02-15T14:15:36.719Z,3.40
2023-02-15T14:18:03.248Z,3.10
2023-02-15T14:20:29.726Z,3.05
2023-02-15T14:22:56.233Z,3.13
2023-02-15T14:25:22.749Z,2.95
2023-02-15T14:27:50.641Z,3.28
2023-02-15T14:30:18.317Z,3.20
2023-02-15T14:32:45.462Z,2.80
2023-02-15T14:35:12.047Z,2.90
2023-02-15T14:37:38.531Z,3.08
2023-02-15T14:40:05.075Z,2.95
2023-02-15T14:42:32.040Z,3.15
2023-02-15T14:44:58.628Z,2.87
2023-02-15T14:47:25.115Z,2.80
2023-02-15T14:49:51.614Z,2.85
2023-02-15T14:52:18.079Z,3.13
2023-02-15T14:54:44.548Z,2.78
2023-02-15T14:57:11.172Z,2.38
2023-02-15T14:59:37.684Z,2.58
2023-02-15T15:02:04.206Z,2.22
2023-02-15T15:04:30.704Z,3.03
2023-02-15T15:06:57.153Z,3.03
2023-02-15T15:09:23.642Z,3.17
2023-02-15T15:11:50.143Z,2.90
2023-02-15T15:14:16.709Z,2.53
2023-02-15T15:16:43.216Z,2.92
2023-02-15T15:19:09.730Z,3.47
2023-02-15T15:21:36.198Z,2.72
2023-02-15T15:24:02.737Z,3.33
2023-02-15T15:26:29.277Z,3.22
2023-02-15T15:28:55.773Z,2.45
2023-02-15T15:31:22.361Z,2.63
2023-02-15T15:33:48.912Z,2.72
2023-02-15T15:36:15.373Z,3.08
2023-02-15T15:38:41.876Z,2.70
2023-02-15T15:41:08.322Z,2.75
2023-02-15T15:43:35.037Z,3.00
2023-02-15T15:46:01.888Z,2.53
2023-02-15T15:48:28.515Z,3.10
2023-02-15T15:50:55.014Z,2.88
2023-02-15T15:53:21.523Z,2.95
2023-02-15T15:55:48.000Z,2.67
2023-02-15T15:58:14.493Z,2.85
2023-02-15T16:00:41.014Z,3.00
2023-02-15T16:03:07.574Z,2.85
2023-02-15T16:05:34.060Z,2.88
2023-02-15T16:08:00.538Z,2.45
2023-02-15T16:10:27.042Z,3.00
2023-02-15T16:12:53.538Z,3.00
2023-02-15T16:15:20.047Z,2.70
2023-02-15T16:17:46.498Z,2.58
2023-02-15T16:20:12.994Z,2.90
2023-02-15T16:22:39.498Z,2.70
2023-02-15T16:25:05.955Z,3.03
2023-02-15T16:27:32.446Z,2.72
2023-02-15T16:29:59.015Z,2.47
2023-02-15T16:32:25.573Z,3.35
2023-02-15T16:34:52.095Z,3.28
2023-02-15T16:37:18.600Z,2.63
2023-02-15T16:39:45.161Z,2.42
2023-02-15T16:42:11.620Z,3.33
2023-02-15T16:44:38.195Z,2.40
2023-02-15T16:47:04.702Z,2.70
2023-02-15T16:49:31.185Z,2.88
2023-02-15T16:51:57.704Z,2.80
2023-02-15T16:54:24.162Z,2.67
2023-02-15T16:56:50.610Z,2.80
2023-02-15T16:59:17.141Z,2.28
2023-02-15T17:01:43.639Z,2.72
2023-02-15T17:04:10.164Z,2.95
2023-02-15T17:06:36.673Z,3.20
2023-02-15T17:09:03.198Z,2.90
2023-02-15T17:11:29.743Z,2.85
2023-02-15T17:13:56.238Z,2.63
2023-02-15T17:16:22.764Z,3.00
2023-02-15T17:18:49.297Z,2.95
2023-02-15T17:21:15.820Z,2.35
2023-02-15T17:23:42.310Z,2.95
2023-02-15T17:26:08.793Z,2.78
2023-02-15T17:28:35.268Z,3.00
2023-02-15T17:31:02.127Z,2.67
2023-02-15T17:33:28.964Z,2.50
2023-02-15T17:35:55.416Z,2.28
2023-02-15T17:38:21.876Z,3.08
2023-02-15T17:40:48.331Z,2.47
2023-02-15T17:43:14.838Z,2.97
2023-02-15T17:45:41.355Z,2.55
2023-02-15T17:48:07.876Z,2.25
2023-02-15T17:50:34.398Z,3.00
2023-02-15T17:53:00.926Z,2.53
2023-02-15T17:55:27.420Z,2.30
2023-02-15T17:57:53.947Z,3.17
2023-02-15T18:00:20.497Z,2.70
2023-02-15T18:02:47.014Z,2.35
2023-02-15T18:05:13.618Z,2.50
2023-02-15T18:07:40.090Z,2.17
2023-02-15T18:10:06.589Z,2.70
2023-02-15T18:12:33.122Z,2.60
2023-02-15T18:14:59.597Z,2.63
2023-02-15T18:17:26.079Z,2.95
2023-02-15T18:19:52.580Z,2.53
2023-02-15T18:22:19.076Z,2.60
2023-02-15T18:24:45.587Z,3.00
2023-02-15T18:27:12.118Z,2.47
2023-02-15T18:29:38.587Z,3.00
2023-02-15T18:32:05.172Z,2.67
2023-02-15T18:34:31.669Z,3.05
2023-02-15T18:36:58.155Z,2.72
2023-02-15T18:39:24.653Z,2.50
2023-02-15T18:41:51.106Z,2.95
2023-02-15T18:44:17.619Z,2.72
2023-02-15T18:46:44.125Z,2.80
2023-02-15T18:49:10.836Z,2.33
2023-02-15T18:51:37.413Z,2.80
2023-02-15T18:54:03.875Z,2.60
2023-02-15T18:56:30.358Z,2.55
2023-02-15T18:58:56.857Z,2.78
2023-02-15T19:01:23.399Z,2.53
2023-02-15T19:03:49.923Z,2.83
2023-02-15T19:06:16.415Z,2.67
2023-02-15T19:08:42.877Z,3.00
2023-02-15T19:11:09.397Z,3.13
2023-02-15T19:13:36.273Z,3.30
2023-02-15T19:16:03.077Z,3.53
2023-02-15T19:18:29.764Z,3.10
2023-02-15T19:20:56.241Z,3.17
2023-02-15T19:23:22.769Z,3.70
2023-02-15T19:25:49.272Z,3.60
2023-02-15T19:28:15.761Z,2.95
2023-02-15T19:30:42.223Z,3.50
2023-02-15T19:33:08.717Z,3.13
2023-02-15T19:35:35.246Z,3.17
2023-02-15T19:38:01.714Z,4.05
2023-02-15T19:40:28.220Z,3.65
2023-02-15T19:42:54.738Z,3.88
2023-02-15T19:45:21.239Z,3.92
2023-02-15T19:47:47.772Z,3.97
2023-02-15T19:50:14.309Z,4.13
2023-02-15T19:52:40.783Z,4.07
2023-02-15T19:55:07.225Z,3.65
2023-02-15T19:57:33.732Z,4.07
2023-02-15T20:00:09.291Z,3.63
2023-02-15T20:02:42.497Z,4.10
2023-02-15T20:05:09.109Z,3.55
2023-02-15T20:07:35.661Z,4.22
2023-02-15T20:10:02.192Z,4.05
2023-02-15T20:12:28.754Z,4.20
2023-02-15T20:14:55.254Z,4.28
2023-02-15T20:17:21.725Z,4.13
2023-02-15T20:19:48.203Z,4.85
2023-02-15T20:22:14.719Z,4.43
2023-02-15T20:24:41.215Z,3.95
2023-02-15T20:27:07.719Z,4.00
2023-02-15T20:29:34.219Z,3.72
2023-02-15T20:32:00.835Z,4.30
2023-02-15T20:34:27.369Z,4.13
2023-02-15T20:36:53.875Z,4.18
2023-02-15T20:39:20.503Z,4.03
2023-02-15T20:41:47.060Z,3.78
2023-02-15T20:44:13.549Z,4.15
2023-02-15T20:46:40.084Z,3.72
2023-02-15T20:49:06.610Z,4.10
2023-02-15T20:51:33.147Z,4.15
2023-02-15T20:53:59.661Z,3.67
2023-02-15T20:56:26.185Z,3.97
2023-02-15T20:58:52.694Z,3.85
2023-02-15T21:01:19.274Z,3.92
2023-02-15T21:03:45.806Z,3.90
2023-02-15T21:06:12.329Z,4.43
2023-02-15T21:08:38.860Z,4.10
2023-02-15T21:11:05.740Z,4.20
2023-02-15T21:13:32.383Z,4.67
2023-02-15T21:15:59.019Z,4.22
2023-02-15T21:18:25.633Z,4.57
2023-02-15T21:20:52.171Z,4.72
2023-02-15T21:23:18.677Z,3.83
2023-02-15T21:25:45.142Z,3.83
2023-02-15T21:28:11.608Z,4.68
2023-02-15T21:30:38.129Z,4.18
2023-02-15T21:33:04.634Z,4.60
2023-02-15T21:35:31.125Z,4.35
2023-02-15T21:37:57.664Z,4.65
2023-02-15T21:40:24.183Z,4.18
2023-02-15T21:42:50.663Z,5.00
2023-02-15T21:45:17.170Z,4.70
2023-02-15T21:47:43.652Z,4.60
2023-02-15T21:50:10.151Z,4.25
2023-02-15T21:52:36.664Z,4.63
2023-02-15T21:55:03.181Z,4.32
2023-02-15T21:57:29.728Z,4.43
2023-02-15T21:59:56.253Z,4.68
2023-02-15T22:02:22.733Z,4.10
2023-02-15T22:04:49.250Z,4.68
2023-02-15T22:07:15.736Z,4.22
2023-02-15T22:09:42.250Z,4.78
2023-02-15T22:12:08.711Z,4.13
2023-02-15T22:14:35.196Z,4.72
2023-02-15T22:17:01.641Z,4.15
2023-02-15T22:19:28.091Z,4.45
2023-02-15T22:21:54.588Z,4.20
2023-02-15T22:24:21.103Z,3.65
2023-02-15T22:26:47.586Z,4.22
2023-02-15T22:29:14.083Z,4.47
2023-02-15T22:31:40.600Z,4.57
2023-02-15T22:34:07.095Z,4.82
2023-02-15T22:36:33.560Z,4.55
2023-02-15T22:39:00.039Z,4.50
2023-02-15T22:41:26.511Z,4.47
2023-02-15T22:43:53.059Z,4.28
2023-02-15T22:46:19.624Z,4.35
2023-02-15T22:48:46.189Z,4.47
2023-02-15T22:51:12.723Z,4.55
2023-02-15T22:53:39.258Z,4.60
2023-02-15T22:56:05.710Z,4.40
2023-02-15T22:58:32.244Z,4.07
2023-02-15T23:00:58.741Z,4.47
2023-02-15T23:03:25.249Z,4.60
2023-02-15T23:05:51.710Z,4.90
2023-02-15T23:08:18.349Z,4.53
2023-02-15T23:10:44.819Z,4.50
2023-02-15T23:13:11.333Z,4.75
2023-02-15T23:15:37.847Z,4.80
2023-02-15T23:18:04.327Z,4.43
2023-02-15T23:20:30.833Z,4.15
2023-02-15T23:22:57.328Z,4.30
2023-02-15T23:25:23.824Z,4.68
2023-02-15T23:27:50.296Z,4.32
2023-02-15T23:30:16.846Z,4.10
2023-02-15T23:32:43.390Z,4.18
2023-02-15T23:35:09.928Z,4.15
2023-02-15T23:37:36.411Z,4.15
2023-02-15T23:40:02.941Z,4.63
2023-02-15T23:42:29.401Z,4.88
2023-02-15T23:44:55.936Z,4.50
2023-02-15T23:47:22.432Z,4.55
2023-02-15T23:49:48.927Z,4.20
2023-02-15T23:52:15.416Z,4.50
2023-02-15T23:54:41.914Z,4.35
2023-02-15T23:57:08.407Z,4.32
2023-02-15T23:59:34.895Z,4.53
